createdAt,value
2022-08-17T00:01:27.237Z,6.68
2022-08-17T00:03:53.922Z,7.28
2022-08-17T00:06:26.004Z,7.10
2022-08-17T00:08:59.528Z,7.15
2022-08-17T00:11:30.558Z,6.93
2022-08-17T00:13:58.699Z,7.40
2022-08-17T00:16:53.431Z,7.40
2022-08-17T00:19:22.794Z,7.53
2022-08-17T00:22:31.782Z,7.63
2022-08-17T00:24:36.366Z,7.43
2022-08-17T00:27:03.284Z,7.05
2022-08-17T00:29:29.508Z,7.38
2022-08-17T00:31:55.974Z,7.47
2022-08-17T00:34:22.195Z,7.00
2022-08-17T00:36:48.434Z,7.85
2022-08-17T00:39:14.719Z,6.93
2022-08-17T00:41:42.374Z,7.82
2022-08-17T00:44:09.561Z,7.15
2022-08-17T00:46:38.046Z,7.38
2022-08-17T00:49:05.733Z,7.07
2022-08-17T00:51:34.802Z,7.15
2022-08-17T00:54:07.434Z,7.15
2022-08-17T00:56:39.164Z,7.97
2022-08-17T00:59:07.090Z,7.18
2022-08-17T01:01:33.799Z,7.55
2022-08-17T01:04:01.335Z,7.32
2022-08-17T01:06:28.219Z,7.70
2022-08-17T01:08:57.608Z,7.20
2022-08-17T01:11:24.583Z,7.22
2022-08-17T01:13:50.843Z,7.30
2022-08-17T01:16:22.999Z,7.30
2022-08-17T01:18:51.338Z,7.35
2022-08-17T01:21:40.691Z,7.13
2022-08-17T01:24:07.511Z,6.80
2022-08-17T01:26:35.467Z,7.28
2022-08-17T01:29:03.942Z,6.95
2022-08-17T01:31:41.399Z,7.30
2022-08-17T01:34:09.081Z,7.30
2022-08-17T01:36:39.714Z,7.43
2022-08-17T01:39:09.310Z,6.63
2022-08-17T01:41:36.164Z,7.55
2022-08-17T01:44:04.120Z,7.93
2022-08-17T01:46:33.315Z,7.75
2022-08-17T01:49:00.245Z,7.65
2022-08-17T01:51:30.134Z,7.38
2022-08-17T01:53:58.364Z,8.23
2022-08-17T01:56:25.612Z,7.75
2022-08-17T01:58:52.386Z,7.53
2022-08-17T02:01:22.001Z,7.60
2022-08-17T02:03:59.351Z,7.30
2022-08-17T02:06:28.817Z,7.72
2022-08-17T02:09:02.937Z,7.05
2022-08-17T02:11:30.619Z,7.63
2022-08-17T02:14:03.401Z,7.25
2022-08-17T02:16:37.785Z,7.50
2022-08-17T02:19:08.909Z,7.47
2022-08-17T02:21:36.295Z,7.38
2022-08-17T02:24:03.045Z,8.05
2022-08-17T02:26:29.424Z,8.40
2022-08-17T02:28:55.753Z,7.28
2022-08-17T02:31:22.026Z,7.85
2022-08-17T02:34:03.389Z,7.95
2022-08-17T02:36:31.719Z,8.38
2022-08-17T02:38:58.539Z,8.02
2022-08-17T02:41:24.886Z,8.23
2022-08-17T02:43:51.403Z,7.70
2022-08-17T02:46:19.408Z,8.05
2022-08-17T02:48:45.729Z,8.75
2022-08-17T02:51:11.967Z,8.77
2022-08-17T02:53:38.226Z,9.23
2022-08-17T02:56:04.511Z,9.15
2022-08-17T02:58:34.991Z,8.43
2022-08-17T03:01:03.193Z,8.93
2022-08-17T03:03:29.527Z,8.15
2022-08-17T03:05:55.778Z,8.55
2022-08-17T03:08:23.148Z,8.98
2022-08-17T03:10:50.292Z,8.73
2022-08-17T03:13:16.915Z,8.52
2022-08-17T03:15:46.894Z,8.88
2022-08-17T03:18:14.455Z,9.85
2022-08-17T03:20:51.104Z,8.95
2022-08-17T03:23:17.552Z,8.45
2022-08-17T03:25:46.286Z,9.38
2022-08-17T03:28:12.794Z,9.40
2022-08-17T03:30:39.987Z,8.35
2022-08-17T03:33:09.799Z,9.23
2022-08-17T03:35:37.514Z,10.27
2022-08-17T03:38:04.362Z,10.27
2022-08-17T03:40:57.855Z,10.80
2022-08-17T03:43:17.593Z,10.70
2022-08-17T03:46:02.214Z,10.45
2022-08-17T03:48:47.496Z,10.55
2022-08-17T03:56:46.688Z,9.00
2022-08-17T03:59:20.987Z,8.77
2022-08-17T04:01:50.638Z,8.82
2022-08-17T04:04:19.851Z,7.70
2022-08-17T04:06:54.064Z,7.72
2022-08-17T04:09:20.368Z,7.90
2022-08-17T04:11:46.871Z,7.70
2022-08-17T04:14:13.190Z,8.90
2022-08-17T04:16:39.473Z,8.13
2022-08-17T04:19:06.065Z,7.60
2022-08-17T04:21:32.443Z,7.07
2022-08-17T04:23:58.768Z,7.10
2022-08-17T04:26:52.793Z,6.88
2022-08-17T04:29:11.454Z,6.90
2022-08-17T04:31:37.757Z,6.65
2022-08-17T04:34:04.050Z,6.57
2022-08-17T04:36:30.319Z,6.47
2022-08-17T04:38:58.288Z,6.45
2022-08-17T04:41:43.457Z,6.80
2022-08-17T04:44:11.421Z,6.75
2022-08-17T04:46:38.352Z,6.40
2022-08-17T04:49:06.130Z,6.30
2022-08-17T04:51:34.059Z,6.25
2022-08-17T04:54:08.478Z,6.03
2022-08-17T04:56:35.258Z,5.85
2022-08-17T04:59:03.724Z,5.78
2022-08-17T05:01:31.492Z,5.80
2022-08-17T05:03:59.484Z,5.68
2022-08-17T05:06:26.753Z,5.65
2022-08-17T05:08:53.760Z,6.32
2022-08-17T05:11:20.434Z,5.60
2022-08-17T05:13:49.912Z,5.80
2022-08-17T05:16:16.716Z,5.70
2022-08-17T05:18:43.002Z,6.00
2022-08-17T05:21:09.456Z,5.72
2022-08-17T05:23:42.573Z,5.97
2022-08-17T05:26:11.622Z,5.38
2022-08-17T05:28:52.292Z,5.72
2022-08-17T05:31:19.002Z,6.10
2022-08-17T05:33:46.323Z,6.10
2022-08-17T05:36:42.015Z,5.60
2022-08-17T05:39:00.203Z,6.50
2022-08-17T05:41:26.443Z,6.88
2022-08-17T05:43:56.262Z,6.80
2022-08-17T05:46:27.110Z,6.72
2022-08-17T05:48:56.249Z,7.28
2022-08-17T05:51:25.438Z,7.13
2022-08-17T05:54:06.905Z,7.50
2022-08-17T05:56:44.918Z,7.15
2022-08-17T05:59:16.832Z,7.22
2022-08-17T06:01:56.090Z,6.45
2022-08-17T06:04:22.340Z,7.20
2022-08-17T06:06:51.351Z,6.80
2022-08-17T06:09:33.928Z,6.90
2022-08-17T06:12:06.576Z,6.88
2022-08-17T06:14:55.766Z,6.35
2022-08-17T06:17:24.953Z,6.60
2022-08-17T06:19:55.765Z,6.38
2022-08-17T06:22:23.392Z,6.93
2022-08-17T06:25:19.088Z,6.68
2022-08-17T06:27:55.504Z,6.68
2022-08-17T06:30:25.490Z,6.25
2022-08-17T06:32:52.602Z,7.30
2022-08-17T06:35:27.782Z,7.95
2022-08-17T06:38:34.968Z,6.60
2022-08-17T06:41:03.866Z,6.65
2022-08-17T06:43:48.254Z,6.10
2022-08-17T06:46:17.564Z,6.37
2022-08-17T06:48:47.106Z,6.63
2022-08-17T06:51:33.260Z,6.88
2022-08-17T06:54:02.457Z,5.95
2022-08-17T06:56:53.222Z,6.45
2022-08-17T06:59:25.177Z,6.60
2022-08-17T07:01:52.110Z,6.60
2022-08-17T07:04:27.699Z,7.22
2022-08-17T07:06:59.115Z,6.82
2022-08-17T07:09:31.246Z,7.40
2022-08-17T07:12:03.683Z,6.50
2022-08-17T07:14:32.060Z,6.70
2022-08-17T07:17:01.416Z,6.88
2022-08-17T07:19:31.534Z,7.22
2022-08-17T07:21:57.783Z,8.15
2022-08-17T07:24:30.955Z,6.97
2022-08-17T07:27:04.786Z,7.22
2022-08-17T07:29:33.083Z,7.32
2022-08-17T07:31:59.534Z,6.93
2022-08-17T07:34:25.811Z,7.72
2022-08-17T07:37:05.221Z,7.22
2022-08-17T07:39:31.574Z,7.25
2022-08-17T07:42:04.469Z,7.68
2022-08-17T07:44:30.887Z,8.43
2022-08-17T07:47:15.917Z,8.38
2022-08-17T07:49:46.295Z,8.85
2022-08-17T07:52:51.274Z,7.88
2022-08-17T07:55:25.415Z,8.43
2022-08-17T07:57:54.982Z,9.10
2022-08-17T08:00:31.670Z,9.48
2022-08-17T08:03:06.115Z,9.48
2022-08-17T08:05:50.614Z,9.43
2022-08-17T08:08:25.082Z,8.82
2022-08-17T08:11:02.102Z,9.02
2022-08-17T08:13:30.088Z,10.15
2022-08-17T08:16:11.484Z,9.15
2022-08-17T08:18:55.905Z,9.57
2022-08-17T08:23:57.366Z,9.63
2022-08-17T08:26:26.410Z,10.15
2022-08-17T08:29:11.281Z,10.02
2022-08-17T08:31:57.523Z,9.37
2022-08-17T08:35:00.186Z,9.20
2022-08-17T08:37:35.623Z,9.93
2022-08-17T08:40:20.177Z,9.45
2022-08-17T08:42:52.456Z,10.68
2022-08-17T08:45:28.377Z,11.10
2022-08-17T08:47:55.166Z,9.93
2022-08-17T08:50:37.852Z,10.93
2022-08-17T08:53:24.392Z,11.25
2022-08-17T08:56:25.943Z,10.80
2022-08-17T08:58:59.109Z,10.60
2022-08-17T09:01:25.431Z,10.88
2022-08-17T09:04:24.105Z,10.77
2022-08-17T09:07:11.470Z,9.98
2022-08-17T09:09:59.387Z,10.45
2022-08-17T09:12:41.505Z,10.57
2022-08-17T09:15:15.001Z,10.55
2022-08-17T09:17:49.475Z,10.18
2022-08-17T09:20:26.477Z,10.60
2022-08-17T09:23:03.320Z,10.50
2022-08-17T09:25:32.641Z,10.80
2022-08-17T09:28:03.478Z,10.88
2022-08-17T09:30:37.738Z,12.10
2022-08-17T09:33:06.190Z,11.05
2022-08-17T09:35:37.036Z,11.23
2022-08-17T09:38:04.177Z,11.27
2022-08-17T09:40:34.149Z,11.23
2022-08-17T09:43:07.140Z,11.43
2022-08-17T09:45:46.470Z,11.93
2022-08-17T09:48:18.893Z,11.55
2022-08-17T09:51:01.598Z,11.38
2022-08-17T09:53:32.162Z,11.65
2022-08-17T09:56:06.436Z,11.43
2022-08-17T09:58:38.840Z,11.57
2022-08-17T10:01:16.980Z,10.93
2022-08-17T10:03:50.660Z,11.93
2022-08-17T10:06:24.314Z,10.90
2022-08-17T10:09:08.626Z,11.82
2022-08-17T10:12:06.073Z,12.63
2022-08-17T10:14:55.179Z,11.77
2022-08-17T10:17:38.113Z,12.10
2022-08-17T10:20:17.001Z,13.32
2022-08-17T10:23:20.613Z,13.70
2022-08-17T10:26:13.547Z,14.60
2022-08-17T10:28:52.435Z,14.38
2022-08-17T10:31:34.770Z,13.50
2022-08-17T10:34:01.606Z,14.50
2022-08-17T10:36:34.012Z,15.43
2022-08-17T10:39:15.024Z,14.32
2022-08-17T10:41:44.234Z,15.27
2022-08-17T10:44:38.008Z,15.52
2022-08-17T10:47:06.846Z,15.85
2022-08-17T10:49:37.863Z,15.77
2022-08-17T10:52:26.051Z,14.77
2022-08-17T10:54:58.372Z,16.02
2022-08-17T10:57:34.109Z,15.13
2022-08-17T11:00:01.594Z,15.93
2022-08-17T11:02:28.065Z,14.88
2022-08-17T11:05:00.938Z,15.88
2022-08-17T11:07:58.430Z,15.20
2022-08-17T11:10:36.834Z,17.85
2022-08-17T11:13:13.142Z,15.07
2022-08-17T11:15:45.678Z,16.05
2022-08-17T11:18:30.542Z,14.68
2022-08-17T11:21:09.033Z,17.67
2022-08-17T11:23:41.923Z,14.68
2022-08-17T11:26:25.754Z,16.30
2022-08-17T11:28:56.203Z,14.95
2022-08-17T11:31:42.690Z,14.25
2022-08-17T11:34:14.468Z,13.77
2022-08-17T11:36:49.846Z,14.27
2022-08-17T11:39:19.138Z,14.60
2022-08-17T11:41:49.462Z,14.70
2022-08-17T11:44:37.507Z,13.73
2022-08-17T11:47:29.163Z,13.27
2022-08-17T11:50:22.517Z,14.73
2022-08-17T11:52:52.115Z,13.02
2022-08-17T11:55:37.438Z,12.65
2022-08-17T11:58:17.945Z,14.25
2022-08-17T12:00:47.139Z,14.60
2022-08-17T12:03:54.465Z,14.57
2022-08-17T12:06:31.262Z,15.57
2022-08-17T12:09:02.474Z,13.52
2022-08-17T12:11:55.601Z,13.52
2022-08-17T12:15:05.798Z,13.73
2022-08-17T12:17:39.454Z,12.45
2022-08-17T12:20:21.633Z,13.68
2022-08-17T12:22:54.637Z,15.13
2022-08-17T12:25:24.486Z,13.68
2022-08-17T12:28:05.153Z,13.88
2022-08-17T12:30:33.404Z,12.60
2022-08-17T12:32:59.690Z,13.07
2022-08-17T12:35:36.538Z,13.20
2022-08-17T12:38:04.307Z,13.65
2022-08-17T12:40:31.601Z,13.95
2022-08-17T12:43:00.654Z,11.35
2022-08-17T12:45:29.838Z,12.38
2022-08-17T12:48:07.632Z,13.07
2022-08-17T12:50:35.396Z,13.20
2022-08-17T12:53:02.682Z,12.52
2022-08-17T12:55:33.119Z,13.68
2022-08-17T12:58:01.764Z,13.68
2022-08-17T13:00:33.022Z,13.63
2022-08-17T13:02:59.343Z,14.18
2022-08-17T13:05:36.747Z,11.90
2022-08-17T13:08:23.437Z,12.48
2022-08-17T13:10:57.743Z,11.80
2022-08-17T13:13:26.199Z,13.60
2022-08-17T13:15:56.919Z,13.98
2022-08-17T13:18:41.294Z,11.25
2022-08-17T13:21:16.494Z,12.55
2022-08-17T13:23:53.836Z,12.57
2022-08-17T13:26:27.590Z,12.43
2022-08-17T13:28:54.405Z,12.80
2022-08-17T13:31:20.681Z,11.68
2022-08-17T13:33:46.959Z,12.07
2022-08-17T13:36:27.861Z,12.93
2022-08-17T13:39:04.498Z,11.70
2022-08-17T13:41:33.498Z,10.65
2022-08-17T13:43:59.772Z,10.93
2022-08-17T13:46:31.188Z,11.82
2022-08-17T13:49:05.496Z,11.43
2022-08-17T13:51:44.830Z,11.18
2022-08-17T13:54:23.432Z,11.15
2022-08-17T13:56:52.732Z,12.73
2022-08-17T13:59:53.326Z,13.68
2022-08-17T14:02:19.633Z,12.70
2022-08-17T14:04:46.484Z,11.88
2022-08-17T14:07:12.948Z,12.63
2022-08-17T14:09:57.299Z,11.80
2022-08-17T14:12:24.953Z,12.25
2022-08-17T14:14:51.813Z,13.60
2022-08-17T14:17:18.952Z,13.02
2022-08-17T14:19:45.283Z,13.48
2022-08-17T14:22:18.083Z,12.73
2022-08-17T14:24:45.085Z,13.15
2022-08-17T14:27:17.399Z,13.30
2022-08-17T14:29:43.967Z,13.68
2022-08-17T14:32:19.284Z,13.57
2022-08-17T14:34:46.269Z,14.77
2022-08-17T14:37:12.807Z,14.45
2022-08-17T14:39:39.167Z,14.00
2022-08-17T14:42:05.507Z,15.25
2022-08-17T14:44:32.427Z,15.00
2022-08-17T14:46:58.790Z,17.88
2022-08-17T14:49:25.839Z,16.55
2022-08-17T14:51:52.111Z,16.65
2022-08-17T14:54:33.448Z,15.02
2022-08-17T14:57:23.448Z,17.25
2022-08-17T14:59:48.776Z,16.58
2022-08-17T15:02:18.127Z,15.13
2022-08-17T15:04:47.498Z,14.75
2022-08-17T15:07:14.272Z,15.85
2022-08-17T15:09:40.542Z,12.93
2022-08-17T15:12:07.162Z,12.48
2022-08-17T15:14:36.386Z,13.13
2022-08-17T15:17:03.590Z,12.68
2022-08-17T15:19:29.858Z,12.20
2022-08-17T15:21:56.120Z,12.10
2022-08-17T15:24:22.431Z,12.82
2022-08-17T15:26:48.760Z,13.50
2022-08-17T15:29:15.035Z,11.35
2022-08-17T15:31:41.335Z,11.25
2022-08-17T15:34:07.963Z,12.65
2022-08-17T15:36:35.032Z,13.10
2022-08-17T15:39:01.611Z,13.25
2022-08-17T15:41:28.074Z,11.98
2022-08-17T15:43:54.910Z,11.70
2022-08-17T15:46:22.862Z,12.70
2022-08-17T15:48:50.400Z,11.82
2022-08-17T15:51:16.630Z,11.27
2022-08-17T15:53:43.957Z,12.45
2022-08-17T15:56:11.164Z,11.52
2022-08-17T15:58:37.907Z,11.23
2022-08-17T16:01:17.029Z,10.82
2022-08-17T16:04:04.155Z,11.80
2022-08-17T16:06:31.602Z,11.23
2022-08-17T16:08:59.314Z,11.25
2022-08-17T16:11:25.875Z,11.45
2022-08-17T16:13:55.129Z,13.35
2022-08-17T16:16:23.529Z,12.43
2022-08-17T16:18:54.548Z,15.30
2022-08-17T16:21:25.632Z,12.65
2022-08-17T16:24:03.708Z,12.07
2022-08-17T16:26:30.755Z,12.05
2022-08-17T16:28:57.571Z,11.48
2022-08-17T16:31:23.978Z,12.23
2022-08-17T16:34:16.271Z,11.48
2022-08-17T16:36:37.492Z,12.00
2022-08-17T16:39:04.635Z,9.63
2022-08-17T16:41:44.255Z,9.82
2022-08-17T16:44:17.463Z,9.68
2022-08-17T16:46:45.640Z,9.50
2022-08-17T16:49:24.489Z,9.32
2022-08-17T16:52:01.553Z,9.70
2022-08-17T16:54:27.781Z,9.68
2022-08-17T16:56:54.145Z,7.85
2022-08-17T16:59:29.964Z,8.10
2022-08-17T17:02:04.384Z,7.22
2022-08-17T17:04:31.281Z,8.30
2022-08-17T17:07:16.861Z,8.35
2022-08-17T17:09:46.428Z,7.82
2022-08-17T17:12:17.483Z,8.50
2022-08-17T17:14:45.041Z,8.50
2022-08-17T17:17:11.249Z,9.32
2022-08-17T17:19:47.599Z,9.63
2022-08-17T17:22:25.070Z,10.43
2022-08-17T17:24:54.110Z,9.15
2022-08-17T17:27:29.339Z,9.93
2022-08-17T17:30:09.960Z,10.07
2022-08-17T17:32:40.519Z,9.73
2022-08-17T17:35:14.470Z,10.13
2022-08-17T17:37:42.666Z,10.50
2022-08-17T17:40:15.156Z,10.35
2022-08-17T17:42:43.281Z,9.77
2022-08-17T17:45:09.589Z,9.65
2022-08-17T17:47:36.408Z,11.82
2022-08-17T17:50:04.113Z,11.40
2022-08-17T17:52:30.352Z,10.90
2022-08-17T17:55:07.326Z,11.55
2022-08-17T17:57:52.964Z,11.15
2022-08-17T18:00:30.924Z,11.13
2022-08-17T18:02:59.942Z,10.05
2022-08-17T18:05:35.202Z,10.60
2022-08-17T18:08:20.110Z,10.57
2022-08-17T18:11:07.119Z,10.20
2022-08-17T18:13:42.733Z,10.73
2022-08-17T18:16:13.493Z,10.73
2022-08-17T18:18:40.700Z,10.10
2022-08-17T18:21:15.401Z,10.52
2022-08-17T18:23:55.740Z,8.95
2022-08-17T18:26:44.900Z,9.90
2022-08-17T18:29:31.830Z,9.98
2022-08-17T18:32:21.484Z,9.75
2022-08-17T18:34:49.673Z,9.05
2022-08-17T18:37:33.203Z,9.52
2022-08-17T18:40:01.776Z,10.23
2022-08-17T18:42:28.914Z,9.32
2022-08-17T18:44:55.869Z,8.80
2022-08-17T18:47:27.456Z,9.10
2022-08-17T18:49:58.443Z,9.68
2022-08-17T18:52:27.806Z,9.52
2022-08-17T18:55:13.191Z,9.55
2022-08-17T18:57:49.839Z,9.20
2022-08-17T19:00:36.619Z,9.60
2022-08-17T19:03:05.237Z,9.65
2022-08-17T19:05:41.191Z,10.15
2022-08-17T19:08:16.065Z,9.63
2022-08-17T19:13:24.168Z,9.88
2022-08-17T19:16:20.004Z,9.98
2022-08-17T19:18:51.812Z,9.50
2022-08-17T19:21:26.819Z,10.20
2022-08-17T19:24:00.473Z,9.70
2022-08-17T19:26:53.928Z,10.05
2022-08-17T19:29:39.149Z,10.50
2022-08-17T19:32:07.371Z,12.10
2022-08-17T19:34:35.388Z,9.35
2022-08-17T19:37:06.697Z,10.57
2022-08-17T19:39:55.750Z,10.35
2022-08-17T19:42:42.342Z,10.85
2022-08-17T19:45:13.907Z,10.65
2022-08-17T19:48:02.907Z,11.02
2022-08-17T19:50:43.720Z,10.85
2022-08-17T19:53:13.598Z,10.68
2022-08-17T19:55:48.275Z,10.32
2022-08-17T19:58:17.970Z,10.82
2022-08-17T20:00:48.947Z,9.98
2022-08-17T20:03:19.284Z,9.70
2022-08-17T20:06:09.137Z,9.52
2022-08-17T20:08:37.471Z,10.23
2022-08-17T20:11:08.757Z,10.38
2022-08-17T20:13:39.023Z,10.50
2022-08-17T20:16:05.907Z,11.30
2022-08-17T20:18:37.657Z,11.07
2022-08-17T20:21:20.503Z,11.15
2022-08-17T20:24:05.938Z,11.30
2022-08-17T20:26:49.148Z,13.10
2022-08-17T20:29:44.999Z,12.48
2022-08-17T20:32:20.925Z,11.93
2022-08-17T20:34:47.551Z,13.48
2022-08-17T20:37:14.260Z,13.52
2022-08-17T20:40:00.963Z,14.00
2022-08-17T20:42:29.958Z,13.38
2022-08-17T20:45:02.728Z,15.10
2022-08-17T20:47:29.013Z,14.00
2022-08-17T20:50:15.555Z,13.75
2022-08-17T20:52:42.259Z,14.23
2022-08-17T20:55:09.350Z,14.45
2022-08-17T20:57:35.599Z,15.55
2022-08-17T21:00:06.460Z,15.25
2022-08-17T21:02:32.792Z,14.55
2022-08-17T21:05:01.199Z,15.88
2022-08-17T21:07:30.320Z,17.08
2022-08-17T21:10:14.368Z,16.58
2022-08-17T21:12:42.081Z,15.20
2022-08-17T21:15:37.723Z,14.48
2022-08-17T21:20:40.047Z,15.95
2022-08-17T21:23:23.965Z,15.85
2022-08-17T21:26:07.763Z,15.77
2022-08-17T21:29:00.389Z,18.65
2022-08-17T21:31:32.244Z,18.83
2022-08-17T21:34:15.756Z,17.58
2022-08-17T21:36:43.007Z,16.00
2022-08-17T21:39:14.173Z,16.20
2022-08-17T21:41:52.631Z,16.98
2022-08-17T21:44:19.079Z,15.55
2022-08-17T21:46:46.955Z,15.90
2022-08-17T21:49:16.487Z,16.05
2022-08-17T21:51:45.078Z,16.73
2022-08-17T21:54:31.268Z,16.10
2022-08-17T21:56:59.539Z,16.65
2022-08-17T21:59:26.041Z,18.73
2022-08-17T22:01:58.585Z,18.42
2022-08-17T22:04:27.913Z,18.60
2022-08-17T22:06:57.280Z,19.27
2022-08-17T22:09:53.588Z,18.70
2022-08-17T22:12:24.197Z,18.38
2022-08-17T22:14:54.285Z,18.90
2022-08-17T22:17:20.591Z,19.73
2022-08-17T22:19:49.067Z,23.98
2022-08-17T22:22:26.310Z,25.23
2022-08-17T22:24:57.861Z,25.13
2022-08-17T22:27:42.968Z,28.45
2022-08-17T22:30:27.587Z,25.83
2022-08-17T22:32:54.800Z,28.88
2022-08-17T22:35:30.198Z,28.23
2022-08-17T22:37:57.115Z,30.63
2022-08-17T22:40:24.703Z,30.95
2022-08-17T22:42:51.041Z,31.05
2022-08-17T22:45:17.331Z,29.73
2022-08-17T22:47:48.594Z,31.38
2022-08-17T22:50:21.586Z,32.95
2022-08-17T22:53:18.724Z,30.05
2022-08-17T22:56:13.621Z,33.47
2022-08-17T22:59:12.491Z,32.80
2022-08-17T23:01:39.755Z,31.67
2022-08-17T23:04:06.185Z,29.80
2022-08-17T23:06:35.928Z,32.00
2022-08-17T23:09:04.012Z,32.03
2022-08-17T23:11:42.984Z,30.90
2022-08-17T23:14:15.616Z,31.10
2022-08-17T23:16:44.899Z,31.52
2022-08-17T23:19:12.852Z,28.60
2022-08-17T23:21:39.336Z,32.72
2022-08-17T23:24:08.720Z,30.48
2022-08-17T23:26:39.117Z,32.40
2022-08-17T23:29:06.589Z,32.42
2022-08-17T23:31:34.680Z,31.00
2022-08-17T23:34:01.350Z,32.25
2022-08-17T23:36:28.174Z,31.80
2022-08-17T23:38:54.539Z,32.88
2022-08-17T23:41:21.555Z,34.38
2022-08-17T23:43:49.136Z,35.67
2022-08-17T23:46:16.149Z,34.08
2022-08-17T23:48:42.446Z,39.40
2022-08-17T23:51:11.430Z,43.70
2022-08-17T23:53:41.789Z,42.03
2022-08-17T23:56:11.217Z,44.63
2022-08-17T23:58:42.122Z,42.45
